createdAt,value
2018-12-21T00:00:29.621Z,57.30
2018-12-21T00:01:00.660Z,57.30
2018-12-21T00:01:31.704Z,57.30
2018-12-21T00:02:03.010Z,57.30
2018-12-21T00:02:34.064Z,57.40
2018-12-21T00:03:05.206Z,57.40
2018-12-21T00:03:36.261Z,57.30
2018-12-21T00:04:07.397Z,57.30
2018-12-21T00:04:38.436Z,57.30
2018-12-21T00:05:09.483Z,57.30
2018-12-21T00:05:40.528Z,57.30
2018-12-21T00:06:11.595Z,57.30
2018-12-21T00:06:42.631Z,57.40
2018-12-21T00:07:13.703Z,57.30
2018-12-21T00:07:44.731Z,57.30
2018-12-21T00:08:15.762Z,57.30
2018-12-21T00:08:46.855Z,57.10
2018-12-21T00:09:17.939Z,57.40
2018-12-21T00:09:48.984Z,57.40
2018-12-21T00:10:20.031Z,57.30
2018-12-21T00:10:51.071Z,57.30
2018-12-21T00:11:22.116Z,57.30
2018-12-21T00:11:53.171Z,57.30
2018-12-21T00:12:24.207Z,57.30
2018-12-21T00:12:55.250Z,57.30
2018-12-21T00:13:26.291Z,57.30
2018-12-21T00:13:57.341Z,57.30
2018-12-21T00:14:28.803Z,57.30
2018-12-21T00:14:59.815Z,57.20
2018-12-21T00:15:30.856Z,57.80
2018-12-21T00:16:01.900Z,57.20
2018-12-21T00:16:32.954Z,57.10
2018-12-21T00:17:03.995Z,57.10
2018-12-21T00:17:35.040Z,57.10
2018-12-21T00:18:06.080Z,57.70
2018-12-21T00:18:37.123Z,57.70
2018-12-21T00:19:08.171Z,57.00
2018-12-21T00:19:39.215Z,57.00
2018-12-21T00:20:10.263Z,57.00
2018-12-21T00:20:41.304Z,57.00
2018-12-21T00:21:12.347Z,57.00
2018-12-21T00:21:43.464Z,57.00
2018-12-21T00:22:14.582Z,57.00
2018-12-21T00:22:45.625Z,57.00
2018-12-21T00:23:16.666Z,57.00
2018-12-21T00:23:47.703Z,57.00
2018-12-21T00:24:18.779Z,57.00
2018-12-21T00:24:49.814Z,57.10
2018-12-21T00:25:20.859Z,57.10
2018-12-21T00:25:51.899Z,57.10
2018-12-21T00:26:22.935Z,57.10
2018-12-21T00:26:53.979Z,57.10
2018-12-21T00:27:25.035Z,57.20
2018-12-21T00:27:56.077Z,57.20
2018-12-21T00:28:27.124Z,57.10
2018-12-21T00:28:58.251Z,57.30
2018-12-21T00:29:29.327Z,57.20
2018-12-21T00:30:00.363Z,57.30
2018-12-21T00:30:31.401Z,57.30
2018-12-21T00:31:02.444Z,57.30
2018-12-21T00:31:33.492Z,57.30
2018-12-21T00:32:04.536Z,57.90
2018-12-21T00:32:35.579Z,57.30
2018-12-21T00:33:06.617Z,57.30
2018-12-21T00:33:37.660Z,57.30
2018-12-21T00:34:08.724Z,57.30
2018-12-21T00:34:39.763Z,57.30
2018-12-21T00:35:10.802Z,57.30
2018-12-21T00:35:41.848Z,57.30
2018-12-21T00:36:12.900Z,57.20
2018-12-21T00:36:43.943Z,57.30
2018-12-21T00:37:14.983Z,57.20
2018-12-21T00:37:46.031Z,57.30
2018-12-21T00:38:17.159Z,57.30
2018-12-21T00:38:48.205Z,57.20
2018-12-21T00:39:19.260Z,57.20
2018-12-21T00:39:50.304Z,57.30
2018-12-21T00:40:21.351Z,57.30
2018-12-21T00:40:52.395Z,57.30
2018-12-21T00:41:23.467Z,57.90
2018-12-21T00:41:54.579Z,57.20
2018-12-21T00:42:25.628Z,57.20
2018-12-21T00:42:56.750Z,57.90
2018-12-21T00:43:27.799Z,58.00
2018-12-21T00:43:58.835Z,57.30
2018-12-21T00:44:29.924Z,57.20
2018-12-21T00:45:00.972Z,57.20
2018-12-21T00:45:32.013Z,57.40
2018-12-21T00:46:03.055Z,57.20
2018-12-21T00:46:34.104Z,57.20
2018-12-21T00:47:05.166Z,57.20
2018-12-21T00:47:36.187Z,57.10
2018-12-21T00:48:07.224Z,57.10
2018-12-21T00:48:38.267Z,57.20
2018-12-21T00:49:09.300Z,57.20
2018-12-21T00:49:40.367Z,57.10
2018-12-21T00:50:11.415Z,57.10
2018-12-21T00:50:42.465Z,57.10
2018-12-21T00:51:13.508Z,57.10
2018-12-21T00:51:44.547Z,57.10
2018-12-21T00:52:15.588Z,57.00
2018-12-21T00:52:46.632Z,57.00
2018-12-21T00:53:17.677Z,57.00
2018-12-21T00:53:48.715Z,57.00
2018-12-21T00:54:19.752Z,57.00
2018-12-21T00:54:50.812Z,57.10
2018-12-21T00:55:21.851Z,57.10
2018-12-21T00:55:52.912Z,57.10
2018-12-21T00:56:23.947Z,57.10
2018-12-21T00:56:54.992Z,57.20
2018-12-21T00:57:26.039Z,57.10
2018-12-21T00:57:57.081Z,57.20
2018-12-21T00:58:28.143Z,57.10
2018-12-21T00:58:59.187Z,57.10
2018-12-21T00:59:30.227Z,57.10
2018-12-21T01:00:01.299Z,57.10
2018-12-21T01:00:32.336Z,57.10
2018-12-21T01:01:03.381Z,57.10
2018-12-21T01:01:34.424Z,57.10
2018-12-21T01:02:05.468Z,57.10
2018-12-21T01:02:36.552Z,57.10
2018-12-21T01:03:07.602Z,57.10
2018-12-21T01:03:38.721Z,57.10
2018-12-21T01:04:09.773Z,57.10
2018-12-21T01:04:40.853Z,57.10
2018-12-21T01:05:11.893Z,57.10
2018-12-21T01:05:43.012Z,57.10
2018-12-21T01:06:14.066Z,57.10
2018-12-21T01:06:45.119Z,57.10
2018-12-21T01:07:16.155Z,57.10
2018-12-21T01:07:47.234Z,57.50
2018-12-21T01:08:18.321Z,57.30
2018-12-21T01:08:49.387Z,57.20
2018-12-21T01:09:20.427Z,57.10
2018-12-21T01:09:51.478Z,57.20
2018-12-21T01:10:22.523Z,57.20
2018-12-21T01:10:53.604Z,57.20
2018-12-21T01:11:24.672Z,57.20
2018-12-21T01:11:55.756Z,57.20
2018-12-21T01:12:26.776Z,57.90
2018-12-21T01:12:57.828Z,57.20
2018-12-21T01:13:28.867Z,57.20
2018-12-21T01:13:59.912Z,57.20
2018-12-21T01:14:30.947Z,57.20
2018-12-21T01:15:02.000Z,57.20
2018-12-21T01:15:33.048Z,57.30
2018-12-21T01:16:04.094Z,57.20
2018-12-21T01:16:35.218Z,57.30
2018-12-21T01:17:06.274Z,57.30
2018-12-21T01:17:37.316Z,57.30
2018-12-21T01:18:08.364Z,57.30
2018-12-21T01:18:39.420Z,57.40
2018-12-21T01:19:10.469Z,57.30
2018-12-21T01:19:41.510Z,57.30
2018-12-21T01:20:12.562Z,57.30
2018-12-21T01:20:43.619Z,57.20
2018-12-21T01:21:14.697Z,57.20
2018-12-21T01:21:45.760Z,57.20
2018-12-21T01:22:16.804Z,57.10
2018-12-21T01:22:47.880Z,57.10
2018-12-21T01:23:18.924Z,57.10
2018-12-21T01:23:49.967Z,57.10
2018-12-21T01:24:21.007Z,57.10
2018-12-21T01:24:52.052Z,57.00
2018-12-21T01:25:23.108Z,57.00
2018-12-21T01:25:54.146Z,57.00
2018-12-21T01:26:25.187Z,57.00
2018-12-21T01:26:56.227Z,57.50
2018-12-21T01:27:27.300Z,57.00
2018-12-21T01:27:58.311Z,57.00
2018-12-21T01:28:29.353Z,57.00
2018-12-21T01:29:00.399Z,57.00
2018-12-21T01:29:31.481Z,57.00
2018-12-21T01:30:02.551Z,57.00
2018-12-21T01:30:33.599Z,57.00
2018-12-21T01:31:04.636Z,57.00
2018-12-21T01:31:35.708Z,57.60
2018-12-21T01:32:06.744Z,57.00
2018-12-21T01:32:37.784Z,56.90
2018-12-21T01:33:08.824Z,57.00
2018-12-21T01:33:39.928Z,57.00
2018-12-21T01:34:10.962Z,57.00
2018-12-21T01:34:42.002Z,57.00
2018-12-21T01:35:13.055Z,57.00
2018-12-21T01:35:44.102Z,57.00
2018-12-21T01:36:15.151Z,57.10
2018-12-21T01:36:46.203Z,57.00
2018-12-21T01:37:17.243Z,57.00
2018-12-21T01:37:48.327Z,57.10
2018-12-21T01:38:19.384Z,57.10
2018-12-21T01:38:50.420Z,57.10
2018-12-21T01:39:21.459Z,57.10
2018-12-21T01:39:52.508Z,57.20
2018-12-21T01:40:23.576Z,57.10
2018-12-21T01:40:54.617Z,57.30
2018-12-21T01:41:25.656Z,57.20
2018-12-21T01:41:56.695Z,57.20
2018-12-21T01:42:27.731Z,57.20
2018-12-21T01:42:58.767Z,57.30
2018-12-21T01:43:29.815Z,57.20
2018-12-21T01:44:00.861Z,57.20
2018-12-21T01:44:31.954Z,57.30
2018-12-21T01:45:02.968Z,57.30
2018-12-21T01:45:34.016Z,57.20
2018-12-21T01:46:05.064Z,57.20
2018-12-21T01:46:36.108Z,57.30
2018-12-21T01:47:07.150Z,57.20
2018-12-21T01:47:38.183Z,57.20
2018-12-21T01:48:09.227Z,57.20
2018-12-21T01:48:40.270Z,57.20
2018-12-21T01:49:11.307Z,57.20
2018-12-21T01:49:42.388Z,57.60
2018-12-21T01:50:13.441Z,57.20
2018-12-21T01:50:44.483Z,57.10
2018-12-21T01:51:15.529Z,57.20
2018-12-21T01:51:47.203Z,57.80
2018-12-21T01:52:18.599Z,57.30
2018-12-21T01:52:49.667Z,57.20
2018-12-21T01:53:20.706Z,57.30
2018-12-21T01:53:51.751Z,57.20
2018-12-21T01:54:22.797Z,57.20
2018-12-21T01:54:53.839Z,57.20
2018-12-21T01:55:24.887Z,57.20
2018-12-21T01:55:55.927Z,57.30
2018-12-21T01:56:26.964Z,57.20
2018-12-21T01:56:58.013Z,57.20
2018-12-21T01:57:29.051Z,57.20
2018-12-21T01:58:00.101Z,57.10
2018-12-21T01:58:31.223Z,57.10
2018-12-21T01:59:02.258Z,57.10
2018-12-21T01:59:33.299Z,57.10
2018-12-21T02:00:04.343Z,57.10
2018-12-21T02:00:35.407Z,57.10
2018-12-21T02:01:06.471Z,57.10
2018-12-21T02:01:37.514Z,57.10
2018-12-21T02:02:08.555Z,57.10
2018-12-21T02:02:39.595Z,57.10
2018-12-21T02:03:10.640Z,57.10
2018-12-21T02:03:41.683Z,57.10
2018-12-21T02:04:12.722Z,57.10
2018-12-21T02:04:43.799Z,57.10
2018-12-21T02:05:14.839Z,57.00
2018-12-21T02:05:45.899Z,57.10
2018-12-21T02:06:16.951Z,57.10
2018-12-21T02:06:47.979Z,57.10
2018-12-21T02:07:19.020Z,57.10
2018-12-21T02:07:50.055Z,57.20
2018-12-21T02:08:21.091Z,57.10
2018-12-21T02:08:52.136Z,57.10
2018-12-21T02:09:23.171Z,57.00
2018-12-21T02:09:54.215Z,57.10
2018-12-21T02:10:25.268Z,57.10
2018-12-21T02:10:56.308Z,57.20
2018-12-21T02:11:27.343Z,57.90
2018-12-21T02:11:58.387Z,57.10
2018-12-21T02:12:29.425Z,57.20
2018-12-21T02:13:00.503Z,57.20
2018-12-21T02:13:31.553Z,57.30
2018-12-21T02:14:02.595Z,57.20
2018-12-21T02:14:33.639Z,57.30
2018-12-21T02:15:04.714Z,57.30
2018-12-21T02:15:35.775Z,57.20
2018-12-21T02:16:06.819Z,57.20
2018-12-21T02:16:37.912Z,57.20
2018-12-21T02:17:08.928Z,57.20
2018-12-21T02:17:39.971Z,57.20
2018-12-21T02:18:11.010Z,57.40
2018-12-21T02:18:42.084Z,57.10
2018-12-21T02:19:13.135Z,57.10
2018-12-21T02:19:44.180Z,57.10
2018-12-21T02:20:15.220Z,57.10
2018-12-21T02:20:46.272Z,57.10
2018-12-21T02:21:17.308Z,57.00
2018-12-21T02:21:55.715Z,57.00
2018-12-21T02:22:21.367Z,57.10
2018-12-21T02:22:52.447Z,57.10
2018-12-21T02:23:23.535Z,57.00
2018-12-21T02:23:54.583Z,57.00
2018-12-21T02:24:25.623Z,57.00
2018-12-21T02:24:56.667Z,57.00
2018-12-21T02:25:27.731Z,57.00
2018-12-21T02:25:58.771Z,57.00
2018-12-21T02:26:29.811Z,57.00
2018-12-21T02:27:00.850Z,57.00
2018-12-21T02:27:31.891Z,56.90
2018-12-21T02:28:02.999Z,57.00
2018-12-21T02:28:34.040Z,57.00
2018-12-21T02:29:05.092Z,56.90
2018-12-21T02:29:36.133Z,57.00
2018-12-21T02:30:07.169Z,57.00
2018-12-21T02:30:38.221Z,56.90
2018-12-21T02:31:09.273Z,57.00
2018-12-21T02:31:40.323Z,57.00
2018-12-21T02:32:11.367Z,57.00
2018-12-21T02:32:42.405Z,57.00
2018-12-21T02:33:13.443Z,57.00
2018-12-21T02:33:44.480Z,57.20
2018-12-21T02:34:15.548Z,57.10
2018-12-21T02:34:46.595Z,57.00
2018-12-21T02:35:17.637Z,57.00
2018-12-21T02:35:48.764Z,57.00
2018-12-21T02:36:19.804Z,57.10
2018-12-21T02:36:50.859Z,57.10
2018-12-21T02:37:21.899Z,57.20
2018-12-21T02:37:52.943Z,57.20
2018-12-21T02:38:23.980Z,57.10
2018-12-21T02:38:55.048Z,57.20
2018-12-21T02:39:26.143Z,57.20
2018-12-21T02:39:57.188Z,57.20
2018-12-21T02:40:28.227Z,57.20
2018-12-21T02:40:59.284Z,57.30
2018-12-21T02:41:30.319Z,57.30
2018-12-21T02:42:01.360Z,57.30
2018-12-21T02:42:32.485Z,57.30
2018-12-21T02:43:03.599Z,57.30
2018-12-21T02:43:34.648Z,57.30
2018-12-21T02:44:05.696Z,57.30
2018-12-21T02:44:36.805Z,57.30
2018-12-21T02:45:07.919Z,57.30
2018-12-21T02:45:38.964Z,57.30
2018-12-21T02:46:10.005Z,57.30
2018-12-21T02:46:41.046Z,57.30
2018-12-21T02:47:12.086Z,57.20
2018-12-21T02:47:43.172Z,57.20
2018-12-21T02:48:14.227Z,57.70
2018-12-21T02:48:45.283Z,57.20
2018-12-21T02:49:16.358Z,57.20
2018-12-21T02:49:47.450Z,57.20
2018-12-21T02:50:18.603Z,57.10
2018-12-21T02:50:49.644Z,57.80
2018-12-21T02:51:20.688Z,57.10
2018-12-21T02:51:51.723Z,57.10
2018-12-21T02:52:22.763Z,57.10
2018-12-21T02:52:53.906Z,57.10
2018-12-21T02:53:24.923Z,57.10
2018-12-21T02:53:55.959Z,57.10
2018-12-21T02:54:26.996Z,57.10
2018-12-21T02:54:58.039Z,57.10
2018-12-21T02:55:29.088Z,57.10
2018-12-21T02:56:00.199Z,57.00
2018-12-21T02:56:31.240Z,57.00
2018-12-21T02:57:02.294Z,57.00
2018-12-21T02:57:33.412Z,57.00
2018-12-21T02:58:04.467Z,57.00
2018-12-21T02:58:35.515Z,57.00
2018-12-21T02:59:06.598Z,57.00
2018-12-21T02:59:37.631Z,57.20
2018-12-21T03:00:08.675Z,57.00
2018-12-21T03:00:39.718Z,57.00
2018-12-21T03:01:10.757Z,57.00
2018-12-21T03:01:41.795Z,57.00
2018-12-21T03:02:12.843Z,57.00
2018-12-21T03:02:43.891Z,57.00
2018-12-21T03:03:14.932Z,57.00
2018-12-21T03:03:45.967Z,57.10
2018-12-21T03:04:17.011Z,57.10
2018-12-21T03:04:48.051Z,57.10
2018-12-21T03:05:19.094Z,57.10
2018-12-21T03:05:50.146Z,57.20
2018-12-21T03:06:21.193Z,57.80
2018-12-21T03:06:52.248Z,57.20
2018-12-21T03:07:23.281Z,57.10
2018-12-21T03:07:54.314Z,57.20
2018-12-21T03:08:25.361Z,57.20
2018-12-21T03:08:56.417Z,57.20
2018-12-21T03:09:27.439Z,57.20
2018-12-21T03:09:58.488Z,57.10
2018-12-21T03:10:29.524Z,57.10
2018-12-21T03:11:00.669Z,57.10
2018-12-21T03:11:31.703Z,57.10
2018-12-21T03:12:02.741Z,57.10
2018-12-21T03:12:33.856Z,57.10
2018-12-21T03:13:04.891Z,57.10
2018-12-21T03:13:35.945Z,57.10
2018-12-21T03:14:07.008Z,57.80
2018-12-21T03:14:38.030Z,57.10
2018-12-21T03:15:09.076Z,57.10
2018-12-21T03:15:40.107Z,57.10
2018-12-21T03:16:11.167Z,57.10
2018-12-21T03:16:42.212Z,57.10
2018-12-21T03:17:13.329Z,57.20
2018-12-21T03:17:44.388Z,56.70
2018-12-21T03:18:15.447Z,57.30
2018-12-21T03:18:48.843Z,57.20
2018-12-21T03:19:19.525Z,57.20
2018-12-21T03:19:50.558Z,57.30
2018-12-21T03:20:21.672Z,57.20
2018-12-21T03:20:52.735Z,57.20
2018-12-21T03:21:23.788Z,57.20
2018-12-21T03:21:54.819Z,57.20
2018-12-21T03:22:25.883Z,57.20
2018-12-21T03:22:56.959Z,57.30
2018-12-21T03:23:27.978Z,57.20
2018-12-21T03:23:59.103Z,57.20
2018-12-21T03:24:30.143Z,57.10
2018-12-21T03:25:01.185Z,57.20
2018-12-21T03:25:32.232Z,57.10
2018-12-21T03:26:03.283Z,57.20
2018-12-21T03:26:34.329Z,57.10
2018-12-21T03:27:05.373Z,57.20
2018-12-21T03:27:36.490Z,57.20
2018-12-21T03:28:07.574Z,57.20
2018-12-21T03:28:38.607Z,57.20
2018-12-21T03:29:09.642Z,57.20
2018-12-21T03:29:40.695Z,57.20
2018-12-21T03:30:11.804Z,57.20
2018-12-21T03:30:42.846Z,57.20
2018-12-21T03:31:13.918Z,57.20
2018-12-21T03:31:45.032Z,57.20
2018-12-21T03:32:16.156Z,57.10
2018-12-21T03:32:47.268Z,57.10
2018-12-21T03:33:18.315Z,57.10
2018-12-21T03:33:49.434Z,57.10
2018-12-21T03:34:20.546Z,57.00
2018-12-21T03:34:51.665Z,57.10
2018-12-21T03:35:22.733Z,57.10
2018-12-21T03:35:53.793Z,57.10
2018-12-21T03:36:24.923Z,57.00
2018-12-21T03:36:56.035Z,57.00
2018-12-21T03:37:27.077Z,57.00
2018-12-21T03:37:58.192Z,57.10
2018-12-21T03:38:29.232Z,57.00
2018-12-21T03:39:00.273Z,57.10
2018-12-21T03:39:31.307Z,57.10
2018-12-21T03:40:02.348Z,57.10
2018-12-21T03:40:33.421Z,57.10
2018-12-21T03:41:04.545Z,57.10
2018-12-21T03:41:35.596Z,57.10
2018-12-21T03:42:06.675Z,57.10
2018-12-21T03:42:37.707Z,57.10
2018-12-21T03:43:08.765Z,57.10
2018-12-21T03:43:39.893Z,57.20
2018-12-21T03:44:10.946Z,57.20
2018-12-21T03:44:42.063Z,57.20
2018-12-21T03:45:13.107Z,57.20
2018-12-21T03:45:44.146Z,57.20
2018-12-21T03:46:15.280Z,57.30
2018-12-21T03:46:46.320Z,57.30
2018-12-21T03:47:17.408Z,57.30
2018-12-21T03:47:48.452Z,57.30
2018-12-21T03:48:19.505Z,57.30
2018-12-21T03:48:50.620Z,57.30
2018-12-21T03:49:21.736Z,57.30
2018-12-21T03:49:52.851Z,57.30
2018-12-21T03:50:23.894Z,57.30
2018-12-21T03:50:55.019Z,57.40
2018-12-21T03:51:26.080Z,57.40
2018-12-21T03:51:57.113Z,57.40
2018-12-21T03:52:28.155Z,57.40
2018-12-21T03:52:59.212Z,58.00
2018-12-21T03:53:30.259Z,57.40
2018-12-21T03:54:01.271Z,57.40
2018-12-21T03:54:32.317Z,57.30
2018-12-21T03:55:03.364Z,57.30
2018-12-21T03:55:34.480Z,57.30
2018-12-21T03:56:05.522Z,57.30
2018-12-21T03:56:36.579Z,57.30
2018-12-21T03:57:07.626Z,57.20
2018-12-21T03:57:38.738Z,57.20
2018-12-21T03:58:09.779Z,57.20
2018-12-21T03:58:40.816Z,57.20
2018-12-21T03:59:11.863Z,57.10
2018-12-21T03:59:42.896Z,57.10
2018-12-21T04:00:13.940Z,57.10
2018-12-21T04:00:44.991Z,57.10
2018-12-21T04:01:16.208Z,57.10
2018-12-21T04:01:47.268Z,57.10
2018-12-21T04:02:18.286Z,57.10
2018-12-21T04:02:49.323Z,57.00
2018-12-21T04:03:20.381Z,57.10
2018-12-21T04:03:51.578Z,57.00
2018-12-21T04:04:22.692Z,57.10
2018-12-21T04:04:53.727Z,57.10
2018-12-21T04:05:24.764Z,57.10
2018-12-21T04:05:55.811Z,57.00
2018-12-21T04:06:26.871Z,57.10
2018-12-21T04:06:57.908Z,57.10
2018-12-21T04:07:28.952Z,57.10
2018-12-21T04:07:59.992Z,57.10
2018-12-21T04:08:31.028Z,57.00
2018-12-21T04:09:02.102Z,57.10
2018-12-21T04:09:33.191Z,57.00
2018-12-21T04:10:04.227Z,57.10
2018-12-21T04:10:35.272Z,57.10
2018-12-21T04:11:06.330Z,57.10
2018-12-21T04:11:37.463Z,57.10
2018-12-21T04:12:08.500Z,57.10
2018-12-21T04:12:39.543Z,57.00
2018-12-21T04:13:10.587Z,57.10
2018-12-21T04:13:41.631Z,57.10
2018-12-21T04:14:12.672Z,57.10
2018-12-21T04:14:43.836Z,57.10
2018-12-21T04:15:14.877Z,57.20
2018-12-21T04:15:45.915Z,57.80
2018-12-21T04:16:16.980Z,57.10
2018-12-21T04:16:48.014Z,57.20
2018-12-21T04:17:19.128Z,57.20
2018-12-21T04:17:50.164Z,57.20
2018-12-21T04:18:21.207Z,57.20
2018-12-21T04:18:52.253Z,57.30
2018-12-21T04:19:23.287Z,57.30
2018-12-21T04:19:54.333Z,57.30
2018-12-21T04:20:25.375Z,57.30
2018-12-21T04:20:56.415Z,57.30
2018-12-21T04:21:27.472Z,57.30
2018-12-21T04:21:58.507Z,57.30
2018-12-21T04:22:33.997Z,57.30
2018-12-21T04:23:02.561Z,57.30
2018-12-21T04:23:33.599Z,57.40
2018-12-21T04:24:04.644Z,57.40
2018-12-21T04:24:35.684Z,57.40
2018-12-21T04:25:06.732Z,57.50
2018-12-21T04:25:37.892Z,57.40
2018-12-21T04:26:08.947Z,57.40
2018-12-21T04:26:40.017Z,57.30
2018-12-21T04:27:11.063Z,57.30
2018-12-21T04:27:42.104Z,57.30
2018-12-21T04:28:13.143Z,57.30
2018-12-21T04:28:44.188Z,57.30
2018-12-21T04:29:15.307Z,57.20
2018-12-21T04:29:46.346Z,57.20
2018-12-21T04:30:17.480Z,57.20
2018-12-21T04:30:48.529Z,57.10
2018-12-21T04:31:19.572Z,57.40
2018-12-21T04:31:50.617Z,57.20
2018-12-21T04:32:21.667Z,57.10
2018-12-21T04:32:52.717Z,57.10
2018-12-21T04:33:23.758Z,57.10
2018-12-21T04:33:54.780Z,57.10
2018-12-21T04:34:25.831Z,57.10
2018-12-21T04:34:56.872Z,57.20
2018-12-21T04:35:27.917Z,57.10
2018-12-21T04:35:58.965Z,57.10
2018-12-21T04:36:30.008Z,57.10
2018-12-21T04:37:01.047Z,57.10
2018-12-21T04:37:32.091Z,57.10
2018-12-21T04:38:03.135Z,57.20
2018-12-21T04:38:34.181Z,57.20
2018-12-21T04:39:05.249Z,57.20
2018-12-21T04:39:36.266Z,57.20
2018-12-21T04:40:07.308Z,57.20
2018-12-21T04:40:38.357Z,57.20
2018-12-21T04:41:09.595Z,57.30
2018-12-21T04:41:40.695Z,57.30
2018-12-21T04:42:11.735Z,57.30
2018-12-21T04:42:42.772Z,57.30
2018-12-21T04:43:13.811Z,57.40
2018-12-21T04:43:44.931Z,57.30
2018-12-21T04:44:15.976Z,57.40
2018-12-21T04:45:26.909Z,57.30
2018-12-21T04:45:57.949Z,57.30
2018-12-21T04:46:29.299Z,57.30
2018-12-21T04:47:00.352Z,57.30
2018-12-21T04:47:31.398Z,57.30
2018-12-21T04:48:02.452Z,57.30
2018-12-21T04:48:33.572Z,57.30
2018-12-21T04:49:04.607Z,57.30
2018-12-21T04:49:35.704Z,57.30
2018-12-21T04:50:06.776Z,57.20
2018-12-21T04:50:37.935Z,57.20
2018-12-21T04:51:08.948Z,57.30
2018-12-21T04:51:40.000Z,57.30
2018-12-21T04:52:11.064Z,57.20
2018-12-21T04:52:43.380Z,57.20
2018-12-21T04:53:14.746Z,57.30
2018-12-21T04:53:45.816Z,57.20
2018-12-21T04:54:16.856Z,57.30
2018-12-21T04:54:47.899Z,57.20
2018-12-21T04:55:18.955Z,57.20
2018-12-21T04:55:49.997Z,57.20
2018-12-21T04:56:21.035Z,57.30
2018-12-21T04:56:52.107Z,57.20
2018-12-21T04:57:23.142Z,57.20
2018-12-21T04:57:54.197Z,57.20
2018-12-21T04:58:25.248Z,57.20
2018-12-21T04:58:56.289Z,57.20
2018-12-21T04:59:27.316Z,57.20
2018-12-21T04:59:58.431Z,57.20
2018-12-21T05:00:29.500Z,57.20
2018-12-21T05:01:00.571Z,57.20
2018-12-21T05:01:31.611Z,57.30
2018-12-21T05:02:02.686Z,57.20
2018-12-21T05:02:33.708Z,57.20
2018-12-21T05:03:04.750Z,57.20
2018-12-21T05:03:35.866Z,57.20
2018-12-21T05:04:06.983Z,57.20
2018-12-21T05:04:38.056Z,57.20
2018-12-21T05:05:09.173Z,57.10
2018-12-21T05:05:40.211Z,57.20
2018-12-21T05:06:11.248Z,57.20
2018-12-21T05:06:42.375Z,56.70
2018-12-21T05:07:13.430Z,57.20
2018-12-21T05:07:44.583Z,57.20
2018-12-21T05:08:15.644Z,57.20
2018-12-21T05:08:46.680Z,57.20
2018-12-21T05:09:17.721Z,57.20
2018-12-21T05:09:48.834Z,57.30
2018-12-21T05:10:19.871Z,57.20
2018-12-21T05:10:50.937Z,57.20
2018-12-21T05:11:22.048Z,57.30
2018-12-21T05:11:53.199Z,57.30
2018-12-21T05:12:24.263Z,57.30
2018-12-21T05:12:55.336Z,57.30
2018-12-21T05:13:26.354Z,57.30
2018-12-21T05:13:57.399Z,57.30
2018-12-21T05:14:28.431Z,57.30
2018-12-21T05:14:59.455Z,57.20
2018-12-21T05:15:30.738Z,57.20
2018-12-21T05:16:01.811Z,57.30
2018-12-21T05:16:32.852Z,57.30
2018-12-21T05:17:03.897Z,57.30
2018-12-21T05:17:34.931Z,57.30
2018-12-21T05:18:05.996Z,57.30
2018-12-21T05:18:37.048Z,57.30
2018-12-21T05:19:08.122Z,57.40
2018-12-21T05:19:39.171Z,57.40
2018-12-21T05:20:10.207Z,57.40
2018-12-21T05:20:41.251Z,57.40
2018-12-21T05:21:12.344Z,57.50
2018-12-21T05:21:43.524Z,57.40
2018-12-21T05:22:14.594Z,57.50
2018-12-21T05:22:52.260Z,57.40
2018-12-21T05:23:18.698Z,57.50
2018-12-21T05:23:49.739Z,57.50
2018-12-21T05:24:20.782Z,57.50
2018-12-21T05:24:51.823Z,57.50
2018-12-21T05:25:22.875Z,57.60
2018-12-21T05:25:53.924Z,57.60
2018-12-21T05:26:24.967Z,57.60
2018-12-21T05:26:56.015Z,57.60
2018-12-21T05:27:27.110Z,57.60
2018-12-21T05:27:58.136Z,57.60
2018-12-21T05:28:29.206Z,57.60
2018-12-21T05:29:00.215Z,57.60
2018-12-21T05:29:31.260Z,57.50
2018-12-21T05:30:02.308Z,57.50
2018-12-21T05:30:33.359Z,57.50
2018-12-21T05:31:04.480Z,57.40
2018-12-21T05:31:35.527Z,57.40
2018-12-21T05:32:06.586Z,57.40
2018-12-21T05:32:37.622Z,57.40
2018-12-21T05:33:08.680Z,57.40
2018-12-21T05:33:39.756Z,57.90
2018-12-21T05:34:10.796Z,57.40
2018-12-21T05:34:41.839Z,57.40
2018-12-21T05:35:12.886Z,57.40
2018-12-21T05:35:43.933Z,57.40
2018-12-21T05:36:15.056Z,57.40
2018-12-21T05:36:46.105Z,57.40
2018-12-21T05:37:17.153Z,57.40
2018-12-21T05:37:48.191Z,57.30
2018-12-21T05:38:19.228Z,57.30
2018-12-21T05:38:50.343Z,57.30
2018-12-21T05:39:21.394Z,57.30
2018-12-21T05:39:52.431Z,57.30
2018-12-21T05:40:23.483Z,57.30
2018-12-21T05:40:54.519Z,57.30
2018-12-21T05:41:25.698Z,57.20
2018-12-21T05:41:56.759Z,57.20
2018-12-21T05:42:27.819Z,57.30
2018-12-21T05:42:58.867Z,57.20
2018-12-21T05:43:29.908Z,57.20
2018-12-21T05:44:00.943Z,57.20
2018-12-21T05:44:31.995Z,57.90
2018-12-21T05:45:03.048Z,57.30
2018-12-21T05:45:34.087Z,57.30
2018-12-21T05:46:05.149Z,57.30
2018-12-21T05:46:36.267Z,57.30
2018-12-21T05:47:07.314Z,57.30
2018-12-21T05:47:38.355Z,57.30
2018-12-21T05:48:09.403Z,57.50
2018-12-21T05:48:40.448Z,57.40
2018-12-21T05:49:11.486Z,57.40
2018-12-21T05:49:42.538Z,57.40
2018-12-21T05:50:13.571Z,57.50
2018-12-21T05:50:44.631Z,57.50
2018-12-21T05:51:15.679Z,57.80
2018-12-21T05:51:46.738Z,58.20
2018-12-21T05:52:17.787Z,57.60
2018-12-21T05:52:48.830Z,57.60
2018-12-21T05:53:19.873Z,57.60
2018-12-21T05:53:50.939Z,57.60
2018-12-21T05:54:21.984Z,57.70
2018-12-21T05:54:53.039Z,57.70
2018-12-21T05:55:24.067Z,57.70
2018-12-21T05:55:55.111Z,57.90
2018-12-21T05:56:26.151Z,57.70
2018-12-21T05:56:57.223Z,57.70
2018-12-21T05:57:28.263Z,57.70
2018-12-21T05:57:59.359Z,57.70
2018-12-21T05:58:30.403Z,57.70
2018-12-21T05:59:01.929Z,57.70
2018-12-21T05:59:32.956Z,57.70
2018-12-21T06:00:04.044Z,57.70
2018-12-21T06:00:35.177Z,57.60
2018-12-21T06:01:06.226Z,57.60
2018-12-21T06:01:37.263Z,57.60
2018-12-21T06:02:08.336Z,57.60
2018-12-21T06:02:39.384Z,57.60
2018-12-21T06:03:10.428Z,57.50
2018-12-21T06:03:41.544Z,57.50
2018-12-21T06:04:12.591Z,57.50
2018-12-21T06:04:43.631Z,57.50
2018-12-21T06:05:14.671Z,57.50
2018-12-21T06:05:45.716Z,57.40
2018-12-21T06:06:16.751Z,57.40
2018-12-21T06:06:47.789Z,57.40
2018-12-21T06:07:18.848Z,57.40
2018-12-21T06:07:49.952Z,57.40
2018-12-21T06:08:21.035Z,57.40
2018-12-21T06:08:52.083Z,57.40
2018-12-21T06:09:23.127Z,57.40
2018-12-21T06:09:54.203Z,57.40
2018-12-21T06:10:25.256Z,57.40
2018-12-21T06:10:56.300Z,57.40
2018-12-21T06:11:27.359Z,57.40
2018-12-21T06:11:58.523Z,57.40
2018-12-21T06:12:29.592Z,57.40
2018-12-21T06:13:00.632Z,57.40
2018-12-21T06:13:31.687Z,57.40
2018-12-21T06:14:02.765Z,57.40
2018-12-21T06:14:33.887Z,57.40
2018-12-21T06:15:04.935Z,57.40
2018-12-21T06:15:35.999Z,57.50
2018-12-21T06:16:07.053Z,57.80
2018-12-21T06:16:38.177Z,57.50
2018-12-21T06:17:09.211Z,57.50
2018-12-21T06:17:40.400Z,57.50
2018-12-21T06:18:11.515Z,57.60
2018-12-21T06:18:42.560Z,57.50
2018-12-21T06:19:13.600Z,57.60
2018-12-21T06:19:44.657Z,57.70
2018-12-21T06:20:15.799Z,57.60
2018-12-21T06:20:46.838Z,57.60
2018-12-21T06:21:17.877Z,57.60
2018-12-21T06:21:48.927Z,57.60
2018-12-21T06:22:20.020Z,57.60
2018-12-21T06:22:51.062Z,57.60
2018-12-21T06:23:22.103Z,57.60
2018-12-21T06:23:53.218Z,57.60
2018-12-21T06:24:24.303Z,57.60
2018-12-21T06:24:55.347Z,57.50
2018-12-21T06:25:26.388Z,57.50
2018-12-21T06:25:57.431Z,57.60
2018-12-21T06:26:28.480Z,57.60
2018-12-21T06:26:59.520Z,57.70
2018-12-21T06:27:30.589Z,57.60
2018-12-21T06:28:01.613Z,57.60
2018-12-21T06:28:32.648Z,57.70
2018-12-21T06:29:03.764Z,57.60
2018-12-21T06:29:34.821Z,57.70
2018-12-21T06:30:05.855Z,57.70
2018-12-21T06:30:36.896Z,57.70
2018-12-21T06:31:07.960Z,57.70
2018-12-21T06:31:39.027Z,57.70
2018-12-21T06:32:10.063Z,57.70
2018-12-21T06:32:41.121Z,57.70
2018-12-21T06:33:12.235Z,57.70
2018-12-21T06:33:43.288Z,57.70
2018-12-21T06:34:14.332Z,57.60
2018-12-21T06:34:45.375Z,57.60
2018-12-21T06:35:16.431Z,57.60
2018-12-21T06:35:47.474Z,57.60
2018-12-21T06:36:18.576Z,57.90
2018-12-21T06:36:49.738Z,57.70
2018-12-21T06:37:20.864Z,57.50
2018-12-21T06:37:51.941Z,57.60
2018-12-21T06:38:23.063Z,57.60
2018-12-21T06:38:54.139Z,57.60
2018-12-21T06:39:25.195Z,57.60
2018-12-21T06:39:56.239Z,57.60
2018-12-21T06:40:27.287Z,57.60
2018-12-21T06:40:58.346Z,57.60